sensor_id;sensor_type;location;lat;lon;timestamp;P1;durP1;ratioP1;P2;durP2;ratioP2
5690;SDS011;2870;42.680;23.364;2023-08-20T00:00:52;18.97;;;9.17;;
5690;SDS011;2870;42.680;23.364;2023-08-20T00:03:20;13.33;;;8.37;;
5690;SDS011;2870;42.680;23.364;2023-08-20T00:05:47;14.17;;;8.90;;
5690;SDS011;2870;42.680;23.364;2023-08-20T00:08:16;11.27;;;8.87;;
5690;SDS011;2870;42.680;23.364;2023-08-20T00:10:43;16.03;;;9.17;;
5690;SDS011;2870;42.680;23.364;2023-08-20T00:13:09;17.60;;;9.13;;
5690;SDS011;2870;42.680;23.364;2023-08-20T00:15:36;13.00;;;9.50;;
5690;SDS011;2870;42.680;23.364;2023-08-20T00:18:04;15.63;;;8.50;;
5690;SDS011;2870;42.680;23.364;2023-08-20T00:20:31;18.57;;;9.37;;
5690;SDS011;2870;42.680;23.364;2023-08-20T00:22:59;13.17;;;9.57;;
5690;SDS011;2870;42.680;23.364;2023-08-20T00:25:28;16.77;;;9.73;;
5690;SDS011;2870;42.680;23.364;2023-08-20T00:27:55;13.93;;;9.37;;
5690;SDS011;2870;42.680;23.364;2023-08-20T00:30:22;16.57;;;9.67;;
5690;SDS011;2870;42.680;23.364;2023-08-20T00:32:49;23.23;;;8.80;;
5690;SDS011;2870;42.680;23.364;2023-08-20T00:35:16;12.47;;;8.90;;
5690;SDS011;2870;42.680;23.364;2023-08-20T00:37:43;13.90;;;8.90;;
5690;SDS011;2870;42.680;23.364;2023-08-20T00:40:10;14.83;;;8.70;;
5690;SDS011;2870;42.680;23.364;2023-08-20T00:42:39;12.60;;;9.63;;
5690;SDS011;2870;42.680;23.364;2023-08-20T00:45:06;17.63;;;10.17;;
5690;SDS011;2870;42.680;23.364;2023-08-20T00:47:33;17.83;;;8.47;;
5690;SDS011;2870;42.680;23.364;2023-08-20T00:50:02;15.60;;;9.50;;
5690;SDS011;2870;42.680;23.364;2023-08-20T00:52:32;18.43;;;9.60;;
5690;SDS011;2870;42.680;23.364;2023-08-20T00:55:00;16.00;;;9.07;;
5690;SDS011;2870;42.680;23.364;2023-08-20T00:57:31;13.13;;;9.00;;
5690;SDS011;2870;42.680;23.364;2023-08-20T00:59:59;15.80;;;9.10;;
5690;SDS011;2870;42.680;23.364;2023-08-20T01:02:31;12.93;;;9.43;;
5690;SDS011;2870;42.680;23.364;2023-08-20T01:04:59;15.33;;;9.07;;
5690;SDS011;2870;42.680;23.364;2023-08-20T01:07:29;11.53;;;8.60;;
5690;SDS011;2870;42.680;23.364;2023-08-20T01:10:08;13.27;;;9.07;;
5690;SDS011;2870;42.680;23.364;2023-08-20T01:12:39;18.60;;;9.77;;
5690;SDS011;2870;42.680;23.364;2023-08-20T01:15:10;14.20;;;9.37;;
5690;SDS011;2870;42.680;23.364;2023-08-20T01:17:39;21.13;;;9.33;;
5690;SDS011;2870;42.680;23.364;2023-08-20T01:20:06;13.40;;;9.80;;
5690;SDS011;2870;42.680;23.364;2023-08-20T01:22:40;13.77;;;8.93;;
5690;SDS011;2870;42.680;23.364;2023-08-20T01:25:24;19.37;;;9.57;;
5690;SDS011;2870;42.680;23.364;2023-08-20T01:28:01;15.13;;;9.57;;
5690;SDS011;2870;42.680;23.364;2023-08-20T01:30:36;14.87;;;9.63;;
5690;SDS011;2870;42.680;23.364;2023-08-20T01:33:03;15.27;;;9.00;;
5690;SDS011;2870;42.680;23.364;2023-08-20T01:35:31;19.70;;;8.80;;
5690;SDS011;2870;42.680;23.364;2023-08-20T01:37:58;16.60;;;9.50;;
5690;SDS011;2870;42.680;23.364;2023-08-20T01:40:24;14.17;;;9.53;;
5690;SDS011;2870;42.680;23.364;2023-08-20T01:42:51;15.23;;;9.10;;
5690;SDS011;2870;42.680;23.364;2023-08-20T01:45:18;13.97;;;10.40;;
5690;SDS011;2870;42.680;23.364;2023-08-20T01:47:48;14.20;;;10.70;;
5690;SDS011;2870;42.680;23.364;2023-08-20T01:50:15;15.67;;;9.80;;
5690;SDS011;2870;42.680;23.364;2023-08-20T01:52:42;17.83;;;10.63;;
5690;SDS011;2870;42.680;23.364;2023-08-20T01:55:09;16.47;;;10.03;;
5690;SDS011;2870;42.680;23.364;2023-08-20T01:57:36;17.13;;;11.17;;
5690;SDS011;2870;42.680;23.364;2023-08-20T02:00:03;15.27;;;10.17;;
5690;SDS011;2870;42.680;23.364;2023-08-20T02:02:55;17.30;;;10.50;;
5690;SDS011;2870;42.680;23.364;2023-08-20T02:05:22;16.60;;;10.20;;
5690;SDS011;2870;42.680;23.364;2023-08-20T02:07:50;17.53;;;10.93;;
5690;SDS011;2870;42.680;23.364;2023-08-20T02:10:17;23.87;;;11.30;;
5690;SDS011;2870;42.680;23.364;2023-08-20T02:12:44;15.40;;;10.30;;
5690;SDS011;2870;42.680;23.364;2023-08-20T02:15:10;12.63;;;9.80;;
5690;SDS011;2870;42.680;23.364;2023-08-20T02:17:37;14.63;;;9.70;;
5690;SDS011;2870;42.680;23.364;2023-08-20T02:20:06;17.80;;;10.20;;
5690;SDS011;2870;42.680;23.364;2023-08-20T02:22:35;16.47;;;10.67;;
5690;SDS011;2870;42.680;23.364;2023-08-20T02:25:01;15.97;;;10.90;;
5690;SDS011;2870;42.680;23.364;2023-08-20T02:27:28;19.30;;;11.13;;
5690;SDS011;2870;42.680;23.364;2023-08-20T02:29:55;18.10;;;10.80;;
5690;SDS011;2870;42.680;23.364;2023-08-20T02:32:22;18.67;;;11.33;;
5690;SDS011;2870;42.680;23.364;2023-08-20T02:34:49;14.83;;;10.40;;
5690;SDS011;2870;42.680;23.364;2023-08-20T02:37:18;17.57;;;11.70;;
5690;SDS011;2870;42.680;23.364;2023-08-20T02:39:45;15.60;;;9.97;;
5690;SDS011;2870;42.680;23.364;2023-08-20T02:42:11;16.60;;;9.87;;
5690;SDS011;2870;42.680;23.364;2023-08-20T02:44:38;15.83;;;10.87;;
5690;SDS011;2870;42.680;23.364;2023-08-20T02:47:05;17.23;;;11.10;;
5690;SDS011;2870;42.680;23.364;2023-08-20T02:49:32;14.20;;;10.77;;
5690;SDS011;2870;42.680;23.364;2023-08-20T02:51:59;15.60;;;10.63;;
5690;SDS011;2870;42.680;23.364;2023-08-20T02:54:27;13.97;;;10.70;;
5690;SDS011;2870;42.680;23.364;2023-08-20T02:56:54;15.73;;;11.07;;
5690;SDS011;2870;42.680;23.364;2023-08-20T02:59:21;15.97;;;10.80;;
5690;SDS011;2870;42.680;23.364;2023-08-20T03:01:47;21.27;;;11.73;;
5690;SDS011;2870;42.680;23.364;2023-08-20T03:04:14;14.20;;;10.73;;
5690;SDS011;2870;42.680;23.364;2023-08-20T03:06:41;19.37;;;10.80;;
5690;SDS011;2870;42.680;23.364;2023-08-20T03:09:09;16.77;;;10.67;;
5690;SDS011;2870;42.680;23.364;2023-08-20T03:11:37;16.03;;;11.30;;
5690;SDS011;2870;42.680;23.364;2023-08-20T03:14:04;20.90;;;11.47;;
5690;SDS011;2870;42.680;23.364;2023-08-20T03:16:30;15.47;;;10.63;;
5690;SDS011;2870;42.680;23.364;2023-08-20T03:18:57;24.37;;;11.57;;
5690;SDS011;2870;42.680;23.364;2023-08-20T03:21:24;14.90;;;10.80;;
5690;SDS011;2870;42.680;23.364;2023-08-20T03:23:51;24.67;;;11.43;;
5690;SDS011;2870;42.680;23.364;2023-08-20T03:26:17;16.50;;;11.17;;
5690;SDS011;2870;42.680;23.364;2023-08-20T03:28:46;17.07;;;11.13;;
5690;SDS011;2870;42.680;23.364;2023-08-20T03:31:12;18.50;;;10.67;;
5690;SDS011;2870;42.680;23.364;2023-08-20T03:33:39;20.13;;;12.37;;
5690;SDS011;2870;42.680;23.364;2023-08-20T03:36:06;23.43;;;12.60;;
5690;SDS011;2870;42.680;23.364;2023-08-20T03:38:33;19.37;;;11.93;;
5690;SDS011;2870;42.680;23.364;2023-08-20T03:40:59;16.20;;;12.00;;
5690;SDS011;2870;42.680;23.364;2023-08-20T03:43:27;18.47;;;12.00;;
5690;SDS011;2870;42.680;23.364;2023-08-20T03:45:55;21.50;;;11.83;;
5690;SDS011;2870;42.680;23.364;2023-08-20T03:48:21;20.53;;;11.27;;
5690;SDS011;2870;42.680;23.364;2023-08-20T03:50:48;17.00;;;13.17;;
5690;SDS011;2870;42.680;23.364;2023-08-20T03:53:15;18.90;;;11.83;;
5690;SDS011;2870;42.680;23.364;2023-08-20T03:55:42;16.90;;;12.10;;
5690;SDS011;2870;42.680;23.364;2023-08-20T03:58:13;16.10;;;11.20;;
5690;SDS011;2870;42.680;23.364;2023-08-20T04:00:40;16.60;;;11.20;;
5690;SDS011;2870;42.680;23.364;2023-08-20T04:03:08;18.50;;;12.20;;
5690;SDS011;2870;42.680;23.364;2023-08-20T04:05:35;18.50;;;12.27;;
5690;SDS011;2870;42.680;23.364;2023-08-20T04:08:02;17.57;;;12.00;;
5690;SDS011;2870;42.680;23.364;2023-08-20T04:10:30;16.27;;;12.00;;
5690;SDS011;2870;42.680;23.364;2023-08-20T04:12:57;27.87;;;17.20;;
5690;SDS011;2870;42.680;23.364;2023-08-20T04:15:24;24.83;;;15.20;;
5690;SDS011;2870;42.680;23.364;2023-08-20T04:17:51;24.00;;;15.20;;
5690;SDS011;2870;42.680;23.364;2023-08-20T04:20:19;23.17;;;13.87;;
5690;SDS011;2870;42.680;23.364;2023-08-20T04:22:46;20.97;;;13.30;;
5690;SDS011;2870;42.680;23.364;2023-08-20T04:25:14;17.37;;;13.03;;
5690;SDS011;2870;42.680;23.364;2023-08-20T04:27:40;21.80;;;12.20;;
5690;SDS011;2870;42.680;23.364;2023-08-20T04:30:07;21.63;;;13.53;;
5690;SDS011;2870;42.680;23.364;2023-08-20T04:32:35;16.97;;;12.33;;
5690;SDS011;2870;42.680;23.364;2023-08-20T04:35:02;18.00;;;12.80;;
5690;SDS011;2870;42.680;23.364;2023-08-20T04:37:30;18.50;;;11.70;;
5690;SDS011;2870;42.680;23.364;2023-08-20T04:39:57;19.50;;;12.67;;
5690;SDS011;2870;42.680;23.364;2023-08-20T04:42:23;17.07;;;12.03;;
5690;SDS011;2870;42.680;23.364;2023-08-20T04:44:50;22.23;;;13.33;;
5690;SDS011;2870;42.680;23.364;2023-08-20T04:47:17;17.40;;;12.87;;
5690;SDS011;2870;42.680;23.364;2023-08-20T04:49:45;24.97;;;13.87;;
5690;SDS011;2870;42.680;23.364;2023-08-20T04:52:11;20.83;;;13.20;;
5690;SDS011;2870;42.680;23.364;2023-08-20T04:54:39;24.93;;;14.10;;
5690;SDS011;2870;42.680;23.364;2023-08-20T04:57:06;23.03;;;13.67;;
5690;SDS011;2870;42.680;23.364;2023-08-20T04:59:33;20.67;;;14.10;;
5690;SDS011;2870;42.680;23.364;2023-08-20T05:02:00;30.23;;;14.00;;
5690;SDS011;2870;42.680;23.364;2023-08-20T05:04:26;26.00;;;13.33;;
5690;SDS011;2870;42.680;23.364;2023-08-20T05:06:53;23.03;;;14.03;;
5690;SDS011;2870;42.680;23.364;2023-08-20T05:09:21;22.50;;;13.00;;
5690;SDS011;2870;42.680;23.364;2023-08-20T05:11:49;21.67;;;13.87;;
5690;SDS011;2870;42.680;23.364;2023-08-20T05:14:16;19.17;;;13.33;;
5690;SDS011;2870;42.680;23.364;2023-08-20T05:16:43;28.43;;;13.20;;
5690;SDS011;2870;42.680;23.364;2023-08-20T05:19:09;23.87;;;12.77;;
5690;SDS011;2870;42.680;23.364;2023-08-20T05:21:36;21.03;;;12.10;;
5690;SDS011;2870;42.680;23.364;2023-08-20T05:24:03;30.40;;;13.37;;
5690;SDS011;2870;42.680;23.364;2023-08-20T05:26:30;22.97;;;13.03;;
5690;SDS011;2870;42.680;23.364;2023-08-20T05:28:59;25.77;;;13.20;;
5690;SDS011;2870;42.680;23.364;2023-08-20T05:31:25;26.13;;;14.20;;
5690;SDS011;2870;42.680;23.364;2023-08-20T05:33:53;32.13;;;13.60;;
5690;SDS011;2870;42.680;23.364;2023-08-20T05:36:20;19.03;;;12.90;;
5690;SDS011;2870;42.680;23.364;2023-08-20T05:38:47;18.50;;;13.13;;
5690;SDS011;2870;42.680;23.364;2023-08-20T05:41:13;27.93;;;15.43;;
5690;SDS011;2870;42.680;23.364;2023-08-20T05:43:40;25.97;;;14.33;;
5690;SDS011;2870;42.680;23.364;2023-08-20T05:46:08;28.37;;;14.63;;
5690;SDS011;2870;42.680;23.364;2023-08-20T05:48:35;23.03;;;14.50;;
5690;SDS011;2870;42.680;23.364;2023-08-20T05:51:02;44.47;;;15.53;;
5690;SDS011;2870;42.680;23.364;2023-08-20T05:53:29;19.47;;;13.80;;
5690;SDS011;2870;42.680;23.364;2023-08-20T05:55:55;19.43;;;13.20;;
5690;SDS011;2870;42.680;23.364;2023-08-20T05:58:22;20.90;;;13.20;;
5690;SDS011;2870;42.680;23.364;2023-08-20T06:00:49;21.80;;;12.80;;
5690;SDS011;2870;42.680;23.364;2023-08-20T06:03:17;19.70;;;12.77;;
5690;SDS011;2870;42.680;23.364;2023-08-20T06:05:44;18.77;;;14.13;;
5690;SDS011;2870;42.680;23.364;2023-08-20T06:08:10;20.87;;;13.30;;
5690;SDS011;2870;42.680;23.364;2023-08-20T06:10:37;19.30;;;12.40;;
5690;SDS011;2870;42.680;23.364;2023-08-20T06:13:04;17.00;;;12.50;;
5690;SDS011;2870;42.680;23.364;2023-08-20T06:15:31;20.33;;;13.67;;
5690;SDS011;2870;42.680;23.364;2023-08-20T06:17:57;19.87;;;12.57;;
5690;SDS011;2870;42.680;23.364;2023-08-20T06:20:25;19.67;;;13.43;;
5690;SDS011;2870;42.680;23.364;2023-08-20T06:22:52;21.50;;;13.50;;
5690;SDS011;2870;42.680;23.364;2023-08-20T06:25:19;22.10;;;13.40;;
5690;SDS011;2870;42.680;23.364;2023-08-20T06:27:46;27.30;;;12.47;;
5690;SDS011;2870;42.680;23.364;2023-08-20T06:30:12;21.37;;;13.57;;
5690;SDS011;2870;42.680;23.364;2023-08-20T06:32:39;20.43;;;13.20;;
5690;SDS011;2870;42.680;23.364;2023-08-20T06:35:06;20.83;;;13.20;;
5690;SDS011;2870;42.680;23.364;2023-08-20T06:37:38;22.63;;;13.50;;
5690;SDS011;2870;42.680;23.364;2023-08-20T06:40:05;22.40;;;14.30;;
5690;SDS011;2870;42.680;23.364;2023-08-20T06:42:32;23.93;;;14.50;;
5690;SDS011;2870;42.680;23.364;2023-08-20T06:44:59;19.47;;;12.27;;
5690;SDS011;2870;42.680;23.364;2023-08-20T06:47:26;19.80;;;11.83;;
5690;SDS011;2870;42.680;23.364;2023-08-20T06:49:53;16.17;;;11.87;;
5690;SDS011;2870;42.680;23.364;2023-08-20T06:52:20;20.00;;;11.50;;
5690;SDS011;2870;42.680;23.364;2023-08-20T06:54:48;25.60;;;12.67;;
5690;SDS011;2870;42.680;23.364;2023-08-20T06:57:14;21.07;;;11.93;;
5690;SDS011;2870;42.680;23.364;2023-08-20T06:59:41;19.10;;;12.00;;
5690;SDS011;2870;42.680;23.364;2023-08-20T07:02:08;16.90;;;11.10;;
5690;SDS011;2870;42.680;23.364;2023-08-20T07:04:36;20.50;;;11.80;;
5690;SDS011;2870;42.680;23.364;2023-08-20T07:07:02;22.90;;;10.83;;
5690;SDS011;2870;42.680;23.364;2023-08-20T07:09:31;17.30;;;11.50;;
5690;SDS011;2870;42.680;23.364;2023-08-20T07:11:59;27.03;;;11.60;;
5690;SDS011;2870;42.680;23.364;2023-08-20T07:14:26;21.03;;;11.00;;
5690;SDS011;2870;42.680;23.364;2023-08-20T07:16:52;17.93;;;10.23;;
5690;SDS011;2870;42.680;23.364;2023-08-20T07:19:19;16.80;;;10.63;;
5690;SDS011;2870;42.680;23.364;2023-08-20T07:21:46;16.90;;;9.23;;
5690;SDS011;2870;42.680;23.364;2023-08-20T07:24:13;19.13;;;9.10;;
5690;SDS011;2870;42.680;23.364;2023-08-20T07:26:39;18.50;;;9.27;;
5690;SDS011;2870;42.680;23.364;2023-08-20T07:29:08;23.50;;;9.80;;
5690;SDS011;2870;42.680;23.364;2023-08-20T07:31:35;17.90;;;8.73;;
5690;SDS011;2870;42.680;23.364;2023-08-20T07:34:02;22.20;;;8.93;;
5690;SDS011;2870;42.680;23.364;2023-08-20T07:36:29;15.90;;;9.70;;
5690;SDS011;2870;42.680;23.364;2023-08-20T07:38:56;12.83;;;7.90;;
5690;SDS011;2870;42.680;23.364;2023-08-20T07:41:23;18.10;;;9.00;;
5690;SDS011;2870;42.680;23.364;2023-08-20T07:43:49;12.10;;;7.90;;
5690;SDS011;2870;42.680;23.364;2023-08-20T07:46:18;11.20;;;7.20;;
5690;SDS011;2870;42.680;23.364;2023-08-20T07:48:45;15.57;;;8.73;;
5690;SDS011;2870;42.680;23.364;2023-08-20T07:51:12;18.63;;;7.80;;
5690;SDS011;2870;42.680;23.364;2023-08-20T07:53:39;15.53;;;8.33;;
5690;SDS011;2870;42.680;23.364;2023-08-20T07:56:05;15.07;;;7.30;;
5690;SDS011;2870;42.680;23.364;2023-08-20T07:58:33;11.00;;;7.97;;
5690;SDS011;2870;42.680;23.364;2023-08-20T08:01:00;9.87;;;6.17;;
5690;SDS011;2870;42.680;23.364;2023-08-20T08:03:29;11.30;;;7.60;;
5690;SDS011;2870;42.680;23.364;2023-08-20T08:05:55;13.70;;;7.10;;
5690;SDS011;2870;42.680;23.364;2023-08-20T08:08:22;14.90;;;7.17;;
5690;SDS011;2870;42.680;23.364;2023-08-20T08:10:49;9.50;;;6.80;;
5690;SDS011;2870;42.680;23.364;2023-08-20T08:13:18;18.13;;;6.73;;
5690;SDS011;2870;42.680;23.364;2023-08-20T08:15:45;10.30;;;6.47;;
5690;SDS011;2870;42.680;23.364;2023-08-20T08:18:12;10.40;;;6.13;;
5690;SDS011;2870;42.680;23.364;2023-08-20T08:20:41;9.73;;;6.20;;
5690;SDS011;2870;42.680;23.364;2023-08-20T08:23:08;12.50;;;6.80;;
5690;SDS011;2870;42.680;23.364;2023-08-20T08:25:34;8.87;;;6.30;;
5690;SDS011;2870;42.680;23.364;2023-08-20T08:28:02;8.73;;;6.03;;
5690;SDS011;2870;42.680;23.364;2023-08-20T08:30:29;17.30;;;6.83;;
5690;SDS011;2870;42.680;23.364;2023-08-20T08:32:56;13.03;;;6.23;;
5690;SDS011;2870;42.680;23.364;2023-08-20T08:35:23;10.67;;;6.30;;
5690;SDS011;2870;42.680;23.364;2023-08-20T08:37:51;9.23;;;6.57;;
5690;SDS011;2870;42.680;23.364;2023-08-20T08:40:17;8.77;;;6.27;;
5690;SDS011;2870;42.680;23.364;2023-08-20T08:42:45;7.93;;;4.93;;
5690;SDS011;2870;42.680;23.364;2023-08-20T08:45:15;9.50;;;6.33;;
5690;SDS011;2870;42.680;23.364;2023-08-20T08:47:44;8.73;;;5.27;;
5690;SDS011;2870;42.680;23.364;2023-08-20T08:50:12;12.50;;;5.43;;
5690;SDS011;2870;42.680;23.364;2023-08-20T08:52:39;7.53;;;5.00;;
5690;SDS011;2870;42.680;23.364;2023-08-20T08:55:08;10.00;;;5.10;;
5690;SDS011;2870;42.680;23.364;2023-08-20T08:57:36;7.23;;;4.73;;
5690;SDS011;2870;42.680;23.364;2023-08-20T09:00:03;14.03;;;5.07;;
5690;SDS011;2870;42.680;23.364;2023-08-20T09:02:31;11.87;;;5.10;;
5690;SDS011;2870;42.680;23.364;2023-08-20T09:04:58;13.20;;;5.43;;
5690;SDS011;2870;42.680;23.364;2023-08-20T09:07:24;8.10;;;5.10;;
5690;SDS011;2870;42.680;23.364;2023-08-20T09:09:56;8.70;;;5.00;;
5690;SDS011;2870;42.680;23.364;2023-08-20T09:12:25;9.57;;;4.83;;
5690;SDS011;2870;42.680;23.364;2023-08-20T09:14:53;11.63;;;5.17;;
5690;SDS011;2870;42.680;23.364;2023-08-20T09:17:24;7.40;;;5.37;;
5690;SDS011;2870;42.680;23.364;2023-08-20T09:19:53;6.80;;;5.10;;
5690;SDS011;2870;42.680;23.364;2023-08-20T09:22:20;11.33;;;4.93;;
5690;SDS011;2870;42.680;23.364;2023-08-20T09:24:51;8.63;;;4.40;;
5690;SDS011;2870;42.680;23.364;2023-08-20T09:27:19;8.43;;;4.50;;
5690;SDS011;2870;42.680;23.364;2023-08-20T09:29:47;8.10;;;4.80;;
5690;SDS011;2870;42.680;23.364;2023-08-20T09:32:16;7.50;;;4.60;;
5690;SDS011;2870;42.680;23.364;2023-08-20T09:34:43;9.40;;;4.97;;
5690;SDS011;2870;42.680;23.364;2023-08-20T09:37:11;8.47;;;4.60;;
5690;SDS011;2870;42.680;23.364;2023-08-20T09:39:40;7.93;;;4.87;;
5690;SDS011;2870;42.680;23.364;2023-08-20T09:42:07;9.87;;;4.60;;
5690;SDS011;2870;42.680;23.364;2023-08-20T09:44:35;8.00;;;4.43;;
5690;SDS011;2870;42.680;23.364;2023-08-20T09:47:05;9.63;;;4.20;;
5690;SDS011;2870;42.680;23.364;2023-08-20T09:49:35;7.20;;;4.10;;
5690;SDS011;2870;42.680;23.364;2023-08-20T09:52:03;10.70;;;4.10;;
5690;SDS011;2870;42.680;23.364;2023-08-20T09:54:35;7.90;;;3.67;;
5690;SDS011;2870;42.680;23.364;2023-08-20T09:57:14;8.63;;;3.70;;
5690;SDS011;2870;42.680;23.364;2023-08-20T09:59:49;8.97;;;4.13;;
5690;SDS011;2870;42.680;23.364;2023-08-20T10:02:19;6.27;;;3.77;;
5690;SDS011;2870;42.680;23.364;2023-08-20T10:04:45;6.77;;;3.93;;
5690;SDS011;2870;42.680;23.364;2023-08-20T10:07:13;5.93;;;3.80;;
5690;SDS011;2870;42.680;23.364;2023-08-20T10:09:40;8.07;;;4.10;;
5690;SDS011;2870;42.680;23.364;2023-08-20T10:12:11;7.50;;;4.00;;
5690;SDS011;2870;42.680;23.364;2023-08-20T10:14:38;7.43;;;3.60;;
5690;SDS011;2870;42.680;23.364;2023-08-20T10:17:06;7.40;;;3.97;;
5690;SDS011;2870;42.680;23.364;2023-08-20T10:19:35;5.67;;;3.93;;
5690;SDS011;2870;42.680;23.364;2023-08-20T10:22:02;10.23;;;3.87;;
5690;SDS011;2870;42.680;23.364;2023-08-20T10:24:39;5.43;;;3.47;;
5690;SDS011;2870;42.680;23.364;2023-08-20T10:27:07;5.47;;;3.00;;
5690;SDS011;2870;42.680;23.364;2023-08-20T10:29:35;5.23;;;3.20;;
5690;SDS011;2870;42.680;23.364;2023-08-20T10:32:08;6.30;;;3.30;;
5690;SDS011;2870;42.680;23.364;2023-08-20T10:34:37;6.30;;;3.80;;
5690;SDS011;2870;42.680;23.364;2023-08-20T10:37:09;6.17;;;3.87;;
5690;SDS011;2870;42.680;23.364;2023-08-20T10:39:36;7.13;;;4.00;;
5690;SDS011;2870;42.680;23.364;2023-08-20T10:42:10;7.30;;;3.60;;
5690;SDS011;2870;42.680;23.364;2023-08-20T10:44:56;7.10;;;4.13;;
5690;SDS011;2870;42.680;23.364;2023-08-20T10:47:41;5.50;;;3.90;;
5690;SDS011;2870;42.680;23.364;2023-08-20T10:50:11;23.67;;;12.13;;
5690;SDS011;2870;42.680;23.364;2023-08-20T10:52:42;7.60;;;4.50;;
5690;SDS011;2870;42.680;23.364;2023-08-20T10:55:13;6.13;;;4.10;;
5690;SDS011;2870;42.680;23.364;2023-08-20T10:57:40;6.10;;;3.90;;
5690;SDS011;2870;42.680;23.364;2023-08-20T11:00:08;7.43;;;4.30;;
5690;SDS011;2870;42.680;23.364;2023-08-20T11:02:36;7.40;;;4.10;;
5690;SDS011;2870;42.680;23.364;2023-08-20T11:05:09;10.90;;;4.30;;
5690;SDS011;2870;42.680;23.364;2023-08-20T11:07:45;12.13;;;4.70;;
5690;SDS011;2870;42.680;23.364;2023-08-20T11:10:13;9.37;;;4.10;;
5690;SDS011;2870;42.680;23.364;2023-08-20T11:12:40;8.97;;;3.90;;
5690;SDS011;2870;42.680;23.364;2023-08-20T11:15:08;9.20;;;4.13;;
5690;SDS011;2870;42.680;23.364;2023-08-20T11:17:40;5.40;;;3.30;;
5690;SDS011;2870;42.680;23.364;2023-08-20T11:20:07;5.10;;;3.40;;
5690;SDS011;2870;42.680;23.364;2023-08-20T11:22:36;8.83;;;3.87;;
5690;SDS011;2870;42.680;23.364;2023-08-20T11:25:04;9.03;;;3.97;;
5690;SDS011;2870;42.680;23.364;2023-08-20T11:27:31;8.10;;;4.07;;
5690;SDS011;2870;42.680;23.364;2023-08-20T11:29:58;9.00;;;3.70;;
5690;SDS011;2870;42.680;23.364;2023-08-20T11:32:25;8.50;;;4.37;;
5690;SDS011;2870;42.680;23.364;2023-08-20T11:34:52;5.90;;;4.10;;
5690;SDS011;2870;42.680;23.364;2023-08-20T11:37:20;8.50;;;4.20;;
5690;SDS011;2870;42.680;23.364;2023-08-20T11:39:48;8.30;;;4.30;;
5690;SDS011;2870;42.680;23.364;2023-08-20T11:42:15;7.63;;;4.57;;
5690;SDS011;2870;42.680;23.364;2023-08-20T11:44:42;8.43;;;4.20;;
5690;SDS011;2870;42.680;23.364;2023-08-20T11:47:13;7.50;;;4.40;;
5690;SDS011;2870;42.680;23.364;2023-08-20T11:49:40;12.43;;;4.80;;
5690;SDS011;2870;42.680;23.364;2023-08-20T11:52:07;9.40;;;4.90;;
5690;SDS011;2870;42.680;23.364;2023-08-20T11:54:34;44.17;;;5.27;;
5690;SDS011;2870;42.680;23.364;2023-08-20T11:57:03;8.67;;;4.90;;
5690;SDS011;2870;42.680;23.364;2023-08-20T11:59:31;7.80;;;4.50;;
5690;SDS011;2870;42.680;23.364;2023-08-20T12:01:59;9.17;;;5.30;;
5690;SDS011;2870;42.680;23.364;2023-08-20T12:04:28;5.70;;;3.90;;
5690;SDS011;2870;42.680;23.364;2023-08-20T12:07:02;9.50;;;4.50;;
5690;SDS011;2870;42.680;23.364;2023-08-20T12:09:30;10.00;;;4.30;;
5690;SDS011;2870;42.680;23.364;2023-08-20T12:11:57;11.13;;;4.70;;
5690;SDS011;2870;42.680;23.364;2023-08-20T12:14:26;9.00;;;4.57;;
5690;SDS011;2870;42.680;23.364;2023-08-20T12:16:53;10.60;;;4.20;;
5690;SDS011;2870;42.680;23.364;2023-08-20T12:19:20;7.60;;;4.00;;
5690;SDS011;2870;42.680;23.364;2023-08-20T12:21:47;8.40;;;4.20;;
5690;SDS011;2870;42.680;23.364;2023-08-20T12:24:15;7.30;;;4.30;;
5690;SDS011;2870;42.680;23.364;2023-08-20T12:26:42;5.87;;;4.20;;
5690;SDS011;2870;42.680;23.364;2023-08-20T12:29:08;10.50;;;4.47;;
5690;SDS011;2870;42.680;23.364;2023-08-20T12:31:37;10.43;;;4.67;;
5690;SDS011;2870;42.680;23.364;2023-08-20T12:34:05;9.23;;;4.80;;
5690;SDS011;2870;42.680;23.364;2023-08-20T12:36:31;6.93;;;4.27;;
5690;SDS011;2870;42.680;23.364;2023-08-20T12:38:58;13.53;;;4.67;;
5690;SDS011;2870;42.680;23.364;2023-08-20T12:41:25;6.40;;;3.83;;
5690;SDS011;2870;42.680;23.364;2023-08-20T12:43:52;7.17;;;4.70;;
5690;SDS011;2870;42.680;23.364;2023-08-20T12:46:18;6.20;;;4.10;;
5690;SDS011;2870;42.680;23.364;2023-08-20T12:48:47;8.93;;;4.53;;
5690;SDS011;2870;42.680;23.364;2023-08-20T12:51:14;7.10;;;4.50;;
5690;SDS011;2870;42.680;23.364;2023-08-20T12:53:43;8.90;;;5.00;;
5690;SDS011;2870;42.680;23.364;2023-08-20T12:56:09;17.63;;;10.03;;
5690;SDS011;2870;42.680;23.364;2023-08-20T12:58:37;7.23;;;5.10;;
5690;SDS011;2870;42.680;23.364;2023-08-20T13:01:03;8.30;;;4.73;;
5690;SDS011;2870;42.680;23.364;2023-08-20T13:03:30;8.43;;;5.73;;
5690;SDS011;2870;42.680;23.364;2023-08-20T13:05:59;10.13;;;4.80;;
5690;SDS011;2870;42.680;23.364;2023-08-20T13:08:27;12.30;;;4.53;;
5690;SDS011;2870;42.680;23.364;2023-08-20T13:10:54;6.37;;;4.30;;
5690;SDS011;2870;42.680;23.364;2023-08-20T13:13:22;8.17;;;4.50;;
5690;SDS011;2870;42.680;23.364;2023-08-20T13:15:51;9.80;;;5.00;;
5690;SDS011;2870;42.680;23.364;2023-08-20T13:18:19;10.20;;;4.63;;
5690;SDS011;2870;42.680;23.364;2023-08-20T13:20:50;7.17;;;4.20;;
5690;SDS011;2870;42.680;23.364;2023-08-20T13:23:18;6.97;;;4.60;;
5690;SDS011;2870;42.680;23.364;2023-08-20T13:25:45;8.13;;;4.60;;
5690;SDS011;2870;42.680;23.364;2023-08-20T13:28:12;8.13;;;4.20;;
5690;SDS011;2870;42.680;23.364;2023-08-20T13:30:39;7.90;;;4.27;;
5690;SDS011;2870;42.680;23.364;2023-08-20T13:33:06;10.60;;;4.70;;
5690;SDS011;2870;42.680;23.364;2023-08-20T13:35:33;7.27;;;4.50;;
5690;SDS011;2870;42.680;23.364;2023-08-20T13:38:00;6.60;;;4.20;;
5690;SDS011;2870;42.680;23.364;2023-08-20T13:40:28;8.57;;;4.60;;
5690;SDS011;2870;42.680;23.364;2023-08-20T13:42:55;7.13;;;4.73;;
5690;SDS011;2870;42.680;23.364;2023-08-20T13:45:21;6.43;;;3.97;;
5690;SDS011;2870;42.680;23.364;2023-08-20T13:47:48;11.37;;;5.00;;
5690;SDS011;2870;42.680;23.364;2023-08-20T13:50:15;8.47;;;4.50;;
5690;SDS011;2870;42.680;23.364;2023-08-20T13:52:42;8.50;;;4.60;;
5690;SDS011;2870;42.680;23.364;2023-08-20T13:55:09;6.47;;;4.17;;
5690;SDS011;2870;42.680;23.364;2023-08-20T13:57:37;8.73;;;4.40;;
5690;SDS011;2870;42.680;23.364;2023-08-20T14:00:04;8.00;;;4.47;;
5690;SDS011;2870;42.680;23.364;2023-08-20T14:02:34;8.70;;;4.50;;
5690;SDS011;2870;42.680;23.364;2023-08-20T14:05:01;7.13;;;4.23;;
5690;SDS011;2870;42.680;23.364;2023-08-20T14:07:29;6.40;;;4.00;;
5690;SDS011;2870;42.680;23.364;2023-08-20T14:09:57;6.50;;;4.07;;
5690;SDS011;2870;42.680;23.364;2023-08-20T14:12:24;11.10;;;4.50;;
5690;SDS011;2870;42.680;23.364;2023-08-20T14:14:52;5.93;;;4.10;;
5690;SDS011;2870;42.680;23.364;2023-08-20T14:17:19;7.37;;;4.53;;
5690;SDS011;2870;42.680;23.364;2023-08-20T14:19:46;7.37;;;4.27;;
5690;SDS011;2870;42.680;23.364;2023-08-20T14:22:13;8.13;;;4.27;;
5690;SDS011;2870;42.680;23.364;2023-08-20T14:24:39;8.10;;;3.73;;
5690;SDS011;2870;42.680;23.364;2023-08-20T14:27:06;8.40;;;4.33;;
5690;SDS011;2870;42.680;23.364;2023-08-20T14:29:33;5.50;;;3.63;;
5690;SDS011;2870;42.680;23.364;2023-08-20T14:32:01;6.40;;;4.13;;
5690;SDS011;2870;42.680;23.364;2023-08-20T14:34:28;9.43;;;4.33;;
5690;SDS011;2870;42.680;23.364;2023-08-20T14:36:55;10.33;;;4.60;;
5690;SDS011;2870;42.680;23.364;2023-08-20T14:39:22;6.27;;;3.70;;
5690;SDS011;2870;42.680;23.364;2023-08-20T14:41:49;7.07;;;4.00;;
5690;SDS011;2870;42.680;23.364;2023-08-20T14:44:16;13.53;;;3.90;;
5690;SDS011;2870;42.680;23.364;2023-08-20T14:46:43;10.77;;;4.40;;
5690;SDS011;2870;42.680;23.364;2023-08-20T14:49:11;6.43;;;4.43;;
5690;SDS011;2870;42.680;23.364;2023-08-20T14:51:38;11.60;;;4.67;;